Monday, December 18, 2017, 3:35 PM EST
Back to Local

KBKL, Cleveland Burke Lakefront

Location: Cleveland, OH, United States Lat: 41.533
Local Time: 3:35 PM EST (20:35 GMT) Lon: -81.667
Time Zone: US/Eastern Elev: 583 ft

Show me the last for .
Show Decoded

2017-12-18 14:53 METAR KBKL 181953Z 22014KT 5SM BR OVC010 06/04 A2992 RMK AO2 CIG 009V013 SLP136
                 T00610039 =
2017-12-18 13:53 METAR KBKL 181853Z 21014G22KT 5SM BR OVC012 06/04 A2993 RMK AO2 RAB13E37 SLP137
                 P0000 T00560039 =
2017-12-18 12:53 METAR KBKL 181753Z 20014G20KT 6SM HZ OVC010 06/03 A2994 RMK AO2 SLP142 60000
                 T00560028 10056 20044 56021 =
2017-12-18 11:53 METAR KBKL 181653Z 20011G20KT 7SM OVC011 06/03 A2996 RMK AO2 SLP148 T00560028 =
2017-12-18 10:53 METAR KBKL 181553Z 20011KT 8SM BKN013 OVC070 05/02 A2998 RMK AO2 RAB09E18 SLP157
                 P0000 T00500022 =
2017-12-18 10:00 METAR KBKL 181500Z 19014KT 8SM OVC044 05/02 A3000 RMK AO2 T00500017 =
2017-12-18 09:53 METAR KBKL 181453Z 20012KT 8SM BKN018 OVC044 05/02 A3000 RMK AO2 SLP164
                 T00500017 50000 =
2017-12-18 09:25 METAR KBKL 181425Z 19012KT 9SM BKN018 OVC044 04/01 A3001 RMK AO2 T00440011 =
2017-12-18 08:53 METAR KBKL 181353Z 19011KT 9SM OVC041 05/01 A3001 RMK AO2 SLP165 T00500011 =
2017-12-18 07:53 METAR KBKL 181253Z 20013G19KT 10SM OVC038 05/01 A3001 RMK AO2 SLP165 T00500006 =
2017-12-18 06:53 METAR KBKL 181153Z 18011KT 10SM BKN042 OVC055 04/01 A3000 RMK AO2 SLP164
                 T00440006 10050 20044 58006 =
2017-12-18 05:53 METAR KBKL 181053Z 19009KT 10SM OVC042 04/00 A3001 RMK AO2 SLP168 T00440000 =
2017-12-18 04:53 METAR KBKL 180953Z 20009KT 10SM OVC041 05/00 A3001 RMK AO2 SLP168 T00500000 =
2017-12-18 03:53 METAR KBKL 180853Z 21013G17KT 10SM OVC037 04/00 A3002 RMK AO2 SLP169 T00440000
                 56008 =
2017-12-18 02:53 METAR KBKL 180753Z 19009KT 10SM OVC038 04/00 A3003 RMK AO2 SLP171 T00440000 =
2017-12-18 01:53 METAR KBKL 180653Z 10SM OVC030 04/00 A3001 RMK AO2 SLP168 T00440000 =
2017-12-18 01:24 METAR KBKL 180624Z 20013G20KT 10SM SCT025 BKN032 OVC047 05/00 A3002 RMK AO2
                 T00500000 =
2017-12-18 01:15 METAR KBKL 180615Z 21015KT 10SM BKN025 BKN032 OVC050 05/00 A3003 RMK AO2
                 T00500000 =
2017-12-18 00:53 METAR KBKL 180553Z 20010G18KT 10SM FEW034 OVC050 04/01 A3004 RMK AO2 SLP178
                 T00440006 10044 20028 58010 =
2017-12-18 00:43 METAR KBKL 180543Z 20010G18KT 10SM SCT029 OVC050 04/01 A3005 RMK AO2 T00390006 =
2017-12-18 00:16 METAR KBKL 180516Z 20010G17KT 10SM BKN026 OVC050 04/01 A3006 RMK AO2 T00390011 =
2017-12-17 23:53 METAR KBKL 180453Z 19009KT 9SM OVC050 03/01 A3006 RMK AO2 SLP185 T00330011
                 400391022 =
2017-12-17 22:53 METAR KBKL 180353Z 19013KT 10SM OVC049 04/01 A3007 RMK AO2 SLP188 T00390006 =
2017-12-17 22:35 METAR KBKL 180335Z 18011KT 10SM SCT026 OVC049 04/01 A3007 RMK AO2 T00390006 =
2017-12-17 22:17 METAR KBKL 180317Z 19009KT 10SM BKN026 BKN031 OVC055 04/01 A3007 RMK AO2
                 T00390006 =
2017-12-17 21:53 METAR KBKL 180253Z 19009KT 10SM BKN030 OVC055 04/00 A3007 RMK AO2 SLP189
                 T00390000 50000 =
2017-12-17 21:43 METAR KBKL 180243Z 19011KT 10SM BKN030 OVC060 04/00 A3007 RMK AO2 T00390000 =
2017-12-17 21:27 METAR KBKL 180227Z 18008KT 10SM BKN028 OVC070 03/00 A3007 RMK AO2 T00330000 =
2017-12-17 20:53 METAR KBKL 180153Z 16010KT 10SM SCT024 OVC090 03/00 A3007 RMK AO2 SLP188
                 T00330000 =
2017-12-17 20:17 METAR KBKL 180117Z 15008KT 10SM BKN028 BKN090 OVC120 03/00 A3007 RMK AO2
                 T00280000 =
2017-12-17 19:53 METAR KBKL 180053Z 10SM BKN085 OVC120 03/00 A3008 RMK AO2 SLP191 T00330000 =
2017-12-17 18:53 METAR KBKL 172353Z 18006KT 10SM OVC100 03/M01 A3007 RMK AO2 SLP189 T00331006
                 10033 20022 55005 =
2017-12-17 17:53 METAR KBKL 172253Z 17006KT 10SM FEW100 BKN120 03/M01 A3007 RMK AO2 SLP187
                 T00331011 =
2017-12-17 16:53 METAR KBKL 172153Z 15006KT 8SM OVC095 03/M02 A3008 RMK AO2 SLP193 T00331017 =
2017-12-17 15:53 METAR KBKL 172053Z 15005KT 8SM BKN110 03/M02 A3009 RMK AO2 SLP195 T00281017
                 55012 =

Support USWX by starting your Amazon purchase here.